Woonsocket, South Dakota
Current Conditions -  °F | °C
As of 12:53 AM on Monday 24 Nov 2014 (Local Time) from KMHE Reporting Station
Overcast Overcast  
Wind Chill:   Ceiling: 2300
Heat Index: 25°   Visibility: 10mi
Dew Point: 17°   Wind: 25mph
Humidity: 72%   Direction: 330°NNW
Pressure: 29.62"   Gusts: 32mph
Location:  44.05°N, 98.28°W
Report Text: KMHE 240653Z AUTO 33022G28KT 10SM OVC023 M04/M08 A2962 RMK AO2 PK WND 34028/0646 SLP041 T10391083 $
Loading
Personal Weather Stations






























Interactive Weather Map New forecast layout! Learn more

10-Day Weather Forecast

Advertisements
Track Severe Weather on mobile